Lansdale, PA

12:17 PM EST on November 28, 2014 (GMT -0500)
Towamencin | Change Station
CLOSE
Current Station
Personal Weather Station
Location: Towamencin, PA
Elevation: 238 ft
Nearby Weather Stations

Elev 238 ft 40.23 °N, 75.32 °W | Updated 17 minutes ago

Partly Cloudy
Partly Cloudy
36.1 °F
Feels Like 32 °F
N
4.9
Wind Variable Wind from NW
Gusts 14.1 mph

Today
High -- | Low -- °F
--% Chance of Precip.
Yesterday
High -- | Low -- °F
Precip. -- in
7:01 AM 4:36 PM
Waxing Crescent, 42% visible
Pressure 30.21 in
Visibility 10.0 miles
Clouds Clear
Windchill 32 °F
Dew Point 31 °F
Humidity 80%
Rainfall 0.00 in
Snow Depth Not available.
UV 3 out of 12
Pollen .10 out of 12
Air Quality Not available.
Flu Activity Not available.
METAR KLOM 281655Z AUTO 31008KT 10SM CLR 01/M07 A3021 RMK AO1

More Conditions Fewer Conditions

Pressure 30.21 in
Visibility 10.0 miles
Clouds Clear
Windchill 32 °F
Dew Point 31 °F
Humidity 80%
Rainfall 0.00 in
Snow Depth Not available.
UV 3 out of 12
Pollen .10 out of 12
Air Quality Not available.
Flu Activity Not available.
METAR KLOM 281655Z AUTO 31008KT 10SM CLR 01/M07 A3021 RMK AO1

More Conditions Fewer Conditions

Nowcast | as of 11:05 am EST on November 28, 2014

Scattered flurries or snow showers will drift across the area into the morning and early afternoon hours. Northwest winds around 15 to 20 mph with gusts up to 25 mph will continue as well.

×

10-Day Weather Forecast

Almanac

Astronomy

Nov. 28, 2014 Rise Set
Actual Time
Civil Twilight
Nautical Twilight
Astronomical Twilight
Moon
Length of Visible Light
Length of Day
Tomorrow will be .
, % of the Moon is Illuminated

Today's Extremes

State Highs State Lows

Community

WunderPhotos

Upload Photos

1,774,239 photos uploaded!

WunderBlogs® & News

Nearby

Air Quality

  Air Quality AQ Index Pollutant
Not available.

Snow Depth

Station Depth Elevation

Earthquake Activity

City Distance Mag. Time & Date
Minimum magnitude displayed is 2.5.

Coastal Water Temperatures

Place Temperature

Nearby Weather Stations